BAW310Q YCFS-YSSY
Flight info
| Callsign | BAW310Q |
|---|---|
| Flight time | 0h 38m |
| Altitude | 32000 |
| Route | BANDA J70 IGDAM/N0490F310 H652 BOREE |
| Aircraft | L101/H-SDFGHIRWXY/S |
Departure
| Time | 2026-04-30 19:25 |
|---|---|
| Airport | Coffs Harbour Airport (YCFS) |
Arrival
| Time | 2026-04-30 20:04 |
|---|---|
| Airport | Sydney Kingsford Smith International Airport (YSSY) |
| Time | Latitude | Longitude | Altitude | Speed | Heading |
|---|---|---|---|---|---|
| 2026-04-30 19:13 | -30.32234 | 153.11720 | 31 ft | 0 kts | 341° |
| 2026-04-30 19:20 | -30.32233 | 153.11720 | 31 ft | 1 kts | 341° |
| 2026-04-30 19:20 | -30.32225 | 153.11722 | 32 ft | 0 kts | 25° |
| 2026-04-30 19:21 | -30.32223 | 153.11725 | 32 ft | 1 kts | 38° |
| 2026-04-30 19:21 | -30.32222 | 153.11737 | 32 ft | 2 kts | 88° |
| 2026-04-30 19:22 | -30.32259 | 153.11794 | 32 ft | 7 kts | 161° |
| 2026-04-30 19:22 | -30.32440 | 153.11789 | 32 ft | 12 kts | 133° |
| 2026-04-30 19:23 | -30.32425 | 153.12025 | 33 ft | 7 kts | 64° |
| 2026-04-30 19:24 | -30.32460 | 153.12022 | 33 ft | 1 kts | 220° |
| 2026-04-30 19:24 | -30.32462 | 153.12020 | 33 ft | 5 kts | 220° |
| 2026-04-30 19:24 | -30.33378 | 153.11118 | 179 ft | 143 kts | 220° |
| 2026-04-30 19:25 | -30.35617 | 153.08846 | 2106 ft | 160 kts | 224° |
| 2026-04-30 19:26 | -30.37455 | 153.06578 | 2942 ft | 211 kts | 224° |
| 2026-04-30 19:26 | -30.39543 | 153.04062 | 4628 ft | 225 kts | 222° |
| 2026-04-30 19:26 | -30.40663 | 153.02746 | 5411 ft | 234 kts | 221° |
| 2026-04-30 19:27 | -30.43540 | 153.00932 | 6897 ft | 241 kts | 195° |
| 2026-04-30 19:27 | -30.46787 | 152.99751 | 8358 ft | 248 kts | 194° |
| 2026-04-30 19:28 | -30.48428 | 152.99105 | 9125 ft | 250 kts | 195° |
| 2026-04-30 19:28 | -30.51755 | 152.97656 | 10639 ft | 260 kts | 197° |
| 2026-04-30 19:29 | -30.55268 | 152.96051 | 11649 ft | 283 kts | 198° |
| 2026-04-30 19:29 | -30.57125 | 152.95195 | 12143 ft | 292 kts | 199° |
| 2026-04-30 19:30 | -30.62952 | 152.92518 | 13639 ft | 309 kts | 199° |
| 2026-04-30 19:30 | -30.66997 | 152.90667 | 14619 ft | 315 kts | 199° |
| 2026-04-30 19:31 | -30.71114 | 152.88788 | 15466 ft | 322 kts | 200° |
| 2026-04-30 19:31 | -30.73210 | 152.87830 | 15823 ft | 326 kts | 200° |
| 2026-04-30 19:31 | -30.77476 | 152.85880 | 16559 ft | 333 kts | 200° |
| 2026-04-30 19:32 | -30.79637 | 152.84890 | 16927 ft | 338 kts | 200° |
| 2026-04-30 19:32 | -30.81893 | 152.83859 | 17306 ft | 352 kts | 200° |
| 2026-04-30 19:32 | -30.84192 | 152.82805 | 17837 ft | 359 kts | 200° |
| 2026-04-30 19:32 | -30.86532 | 152.81735 | 18381 ft | 365 kts | 200° |
| 2026-04-30 19:33 | -30.88912 | 152.80645 | 18862 ft | 370 kts | 200° |
| 2026-04-30 19:33 | -30.91294 | 152.79551 | 19321 ft | 374 kts | 200° |
| 2026-04-30 19:33 | -30.93734 | 152.78429 | 19787 ft | 379 kts | 200° |
| 2026-04-30 19:33 | -30.96196 | 152.77295 | 20257 ft | 382 kts | 200° |
| 2026-04-30 19:34 | -30.98679 | 152.76151 | 20748 ft | 385 kts | 200° |
| 2026-04-30 19:34 | -31.01184 | 152.74997 | 21238 ft | 388 kts | 200° |
| 2026-04-30 19:34 | -31.06238 | 152.72668 | 22243 ft | 392 kts | 200° |
| 2026-04-30 19:35 | -31.08782 | 152.71496 | 22760 ft | 394 kts | 200° |
| 2026-04-30 19:35 | -31.10480 | 152.70712 | 23040 ft | 397 kts | 200° |
| 2026-04-30 19:35 | -31.13910 | 152.69130 | 23574 ft | 403 kts | 200° |
| 2026-04-30 19:35 | -31.16531 | 152.67920 | 23967 ft | 407 kts | 200° |
| 2026-04-30 19:36 | -31.19184 | 152.66696 | 24312 ft | 411 kts | 200° |
| 2026-04-30 19:36 | -31.20953 | 152.65879 | 24537 ft | 413 kts | 200° |
| 2026-04-30 19:36 | -31.26340 | 152.63389 | 25241 ft | 418 kts | 200° |
| 2026-04-30 19:37 | -31.29054 | 152.62133 | 25600 ft | 420 kts | 200° |
| 2026-04-30 19:37 | -31.31780 | 152.60870 | 25955 ft | 421 kts | 200° |
| 2026-04-30 19:37 | -31.34511 | 152.59604 | 26323 ft | 423 kts | 200° |
| 2026-04-30 19:37 | -31.37250 | 152.58334 | 26683 ft | 424 kts | 200° |
| 2026-04-30 19:38 | -31.40001 | 152.57058 | 27051 ft | 426 kts | 200° |
| 2026-04-30 19:38 | -31.42722 | 152.55797 | 27421 ft | 427 kts | 200° |
| 2026-04-30 19:38 | -31.45490 | 152.54512 | 27811 ft | 428 kts | 200° |
| 2026-04-30 19:38 | -31.48261 | 152.53224 | 28195 ft | 430 kts | 200° |
| 2026-04-30 19:39 | -31.51051 | 152.51927 | 28596 ft | 435 kts | 200° |
| 2026-04-30 19:39 | -31.53892 | 152.50605 | 28996 ft | 441 kts | 200° |
| 2026-04-30 19:39 | -31.56766 | 152.49266 | 29405 ft | 447 kts | 200° |
| 2026-04-30 19:39 | -31.59674 | 152.47911 | 29811 ft | 452 kts | 200° |
| 2026-04-30 19:40 | -31.62615 | 152.46540 | 30223 ft | 457 kts | 200° |
| 2026-04-30 19:40 | -31.65591 | 152.45152 | 30623 ft | 462 kts | 200° |
| 2026-04-30 19:40 | -31.68589 | 152.43753 | 30975 ft | 466 kts | 200° |
| 2026-04-30 19:40 | -31.71609 | 152.42339 | 31338 ft | 470 kts | 200° |
| 2026-04-30 19:41 | -31.74656 | 152.40912 | 31711 ft | 473 kts | 200° |
| 2026-04-30 19:41 | -31.77720 | 152.39476 | 32082 ft | 475 kts | 200° |
| 2026-04-30 19:41 | -31.80796 | 152.38034 | 32273 ft | 477 kts | 200° |
| 2026-04-30 19:41 | -31.83888 | 152.36584 | 32376 ft | 481 kts | 200° |
| 2026-04-30 19:42 | -31.90172 | 152.33639 | 32416 ft | 491 kts | 200° |
| 2026-04-30 19:42 | -31.96522 | 152.30657 | 32410 ft | 492 kts | 200° |
| 2026-04-30 19:43 | -32.02886 | 152.27661 | 32422 ft | 492 kts | 200° |
| 2026-04-30 19:44 | -32.12421 | 152.23167 | 32418 ft | 492 kts | 200° |
| 2026-04-30 19:44 | -32.18735 | 152.20186 | 32418 ft | 492 kts | 200° |
| 2026-04-30 19:45 | -32.25099 | 152.17176 | 32413 ft | 492 kts | 200° |
| 2026-04-30 19:45 | -32.31446 | 152.14168 | 32415 ft | 492 kts | 200° |
| 2026-04-30 19:46 | -32.37803 | 152.11152 | 32415 ft | 492 kts | 200° |
| 2026-04-30 19:46 | -32.44157 | 152.08134 | 32415 ft | 492 kts | 200° |
| 2026-04-30 19:47 | -32.50517 | 152.05108 | 32259 ft | 493 kts | 200° |
| 2026-04-30 19:47 | -32.56854 | 152.02088 | 30966 ft | 489 kts | 200° |
| 2026-04-30 19:47 | -32.60004 | 152.00587 | 29818 ft | 487 kts | 200° |
| 2026-04-30 19:48 | -32.63152 | 151.99088 | 28536 ft | 488 kts | 200° |
| 2026-04-30 19:48 | -32.66297 | 151.97590 | 27245 ft | 485 kts | 200° |
| 2026-04-30 19:48 | -32.69405 | 151.96105 | 26107 ft | 478 kts | 200° |
| 2026-04-30 19:48 | -32.72463 | 151.94641 | 25048 ft | 469 kts | 201° |
| 2026-04-30 19:49 | -32.75469 | 151.93201 | 24009 ft | 462 kts | 201° |
| 2026-04-30 19:49 | -32.81284 | 151.90416 | 22526 ft | 446 kts | 201° |
| 2026-04-30 19:49 | -32.84162 | 151.89035 | 22173 ft | 445 kts | 201° |
| 2026-04-30 19:50 | -32.87049 | 151.87649 | 21797 ft | 450 kts | 201° |
| 2026-04-30 19:50 | -32.89976 | 151.86243 | 21398 ft | 457 kts | 201° |
| 2026-04-30 19:50 | -32.92929 | 151.84823 | 21027 ft | 458 kts | 201° |
| 2026-04-30 19:50 | -32.95880 | 151.83402 | 20659 ft | 456 kts | 201° |
| 2026-04-30 19:51 | -32.98804 | 151.81992 | 20299 ft | 450 kts | 201° |
| 2026-04-30 19:51 | -33.01688 | 151.80601 | 19946 ft | 445 kts | 201° |
| 2026-04-30 19:51 | -33.04546 | 151.79222 | 19585 ft | 439 kts | 201° |
| 2026-04-30 19:51 | -33.07340 | 151.77873 | 18920 ft | 430 kts | 202° |
| 2026-04-30 19:52 | -33.10095 | 151.76541 | 18149 ft | 425 kts | 202° |
| 2026-04-30 19:52 | -33.12821 | 151.75221 | 17386 ft | 420 kts | 202° |
| 2026-04-30 19:52 | -33.15512 | 151.73916 | 16626 ft | 414 kts | 202° |
| 2026-04-30 19:52 | -33.18165 | 151.72630 | 16268 ft | 409 kts | 202° |
| 2026-04-30 19:53 | -33.20799 | 151.71355 | 16035 ft | 408 kts | 202° |
| 2026-04-30 19:53 | -33.23439 | 151.70079 | 15810 ft | 413 kts | 202° |
| 2026-04-30 19:53 | -33.26086 | 151.68797 | 15576 ft | 417 kts | 202° |
| 2026-04-30 19:53 | -33.28772 | 151.67495 | 15324 ft | 417 kts | 202° |
| 2026-04-30 19:54 | -33.31470 | 151.66186 | 15087 ft | 417 kts | 202° |
| 2026-04-30 19:54 | -33.34160 | 151.64879 | 14857 ft | 417 kts | 202° |
| 2026-04-30 19:54 | -33.36851 | 151.63571 | 14612 ft | 417 kts | 202° |
| 2026-04-30 19:54 | -33.39537 | 151.62262 | 14387 ft | 417 kts | 202° |
| 2026-04-30 19:55 | -33.42227 | 151.60951 | 14148 ft | 417 kts | 202° |
| 2026-04-30 19:55 | -33.44924 | 151.59640 | 13892 ft | 417 kts | 202° |
| 2026-04-30 19:55 | -33.47617 | 151.58332 | 13630 ft | 417 kts | 202° |
| 2026-04-30 19:55 | -33.50290 | 151.57030 | 13196 ft | 408 kts | 202° |
| 2026-04-30 19:56 | -33.52868 | 151.55773 | 12386 ft | 393 kts | 202° |
| 2026-04-30 19:56 | -33.55354 | 151.54559 | 11650 ft | 379 kts | 202° |
| 2026-04-30 19:56 | -33.57761 | 151.53384 | 10933 ft | 368 kts | 202° |
| 2026-04-30 19:56 | -33.60101 | 151.52243 | 10222 ft | 358 kts | 202° |
| 2026-04-30 19:57 | -33.62395 | 151.51122 | 9446 ft | 355 kts | 202° |
| 2026-04-30 19:57 | -33.64687 | 151.50001 | 8714 ft | 368 kts | 201° |
| 2026-04-30 19:57 | -33.67095 | 151.48821 | 7968 ft | 373 kts | 201° |
| 2026-04-30 19:57 | -33.69447 | 151.47666 | 7376 ft | 356 kts | 201° |
| 2026-04-30 19:58 | -33.71689 | 151.46565 | 6903 ft | 340 kts | 201° |
| 2026-04-30 19:58 | -33.73829 | 151.45515 | 6381 ft | 326 kts | 201° |
| 2026-04-30 19:58 | -33.75895 | 151.44505 | 5895 ft | 315 kts | 201° |
| 2026-04-30 19:58 | -33.77897 | 151.43527 | 5388 ft | 305 kts | 201° |
| 2026-04-30 19:59 | -33.79837 | 151.42577 | 4884 ft | 298 kts | 201° |
| 2026-04-30 19:59 | -33.81738 | 151.41645 | 4378 ft | 291 kts | 201° |
| 2026-04-30 19:59 | -33.85374 | 151.39858 | 3642 ft | 274 kts | 202° |
| 2026-04-30 20:00 | -33.87106 | 151.39005 | 3379 ft | 264 kts | 201° |
| 2026-04-30 20:00 | -33.88705 | 151.38014 | 3080 ft | 255 kts | 220° |
| 2026-04-30 20:00 | -33.89788 | 151.36452 | 2944 ft | 239 kts | 246° |
| 2026-04-30 20:00 | -33.90251 | 151.34588 | 2745 ft | 227 kts | 261° |
| 2026-04-30 20:01 | -33.90883 | 151.31127 | 2144 ft | 199 kts | 255° |
| 2026-04-30 20:01 | -33.91244 | 151.29611 | 1972 ft | 180 kts | 254° |
| 2026-04-30 20:01 | -33.91579 | 151.28210 | 1739 ft | 168 kts | 254° |
| 2026-04-30 20:02 | -33.92182 | 151.25580 | 1206 ft | 165 kts | 255° |
| 2026-04-30 20:02 | -33.92511 | 151.24237 | 950 ft | 167 kts | 254° |
| 2026-04-30 20:03 | -33.93139 | 151.21627 | 530 ft | 161 kts | 256° |
| 2026-04-30 20:03 | -33.93437 | 151.20329 | 318 ft | 161 kts | 255° |
| 2026-04-30 20:03 | -33.93740 | 151.19051 | 92 ft | 156 kts | 256° |
| 2026-04-30 20:03 | -33.94008 | 151.17906 | 33 ft | 114 kts | 255° |
| 2026-04-30 20:04 | -33.94184 | 151.17249 | 33 ft | 55 kts | 258° |
| 2026-04-30 20:04 | -33.94230 | 151.16968 | 34 ft | 16 kts | 256° |
| 2026-04-30 20:04 | -33.94217 | 151.16876 | 32 ft | 11 kts | 310° |
| 2026-04-30 20:05 | -33.94175 | 151.16850 | 34 ft | 3 kts | 347° |
| 2026-04-30 20:05 | -33.94143 | 151.16841 | 34 ft | 7 kts | 347° |
| 2026-04-30 20:05 | -33.94048 | 151.16890 | 35 ft | 11 kts | 77° |
| 2026-04-30 20:06 | -33.94031 | 151.16985 | 35 ft | 10 kts | 78° |
| 2026-04-30 20:06 | -33.94026 | 151.17007 | 35 ft | 4 kts | 75° |
| 2026-04-30 20:06 | -33.94010 | 151.17061 | 34 ft | 10 kts | 71° |
| 2026-04-30 20:06 | -33.93982 | 151.17173 | 34 ft | 17 kts | 73° |
| 2026-04-30 20:07 | -33.93946 | 151.17322 | 32 ft | 21 kts | 75° |
| 2026-04-30 20:07 | -33.93906 | 151.17503 | 32 ft | 23 kts | 74° |
| 2026-04-30 20:07 | -33.93788 | 151.17769 | 34 ft | 15 kts | 15° |
| 2026-04-30 20:08 | -33.93690 | 151.17798 | 35 ft | 9 kts | 13° |
| 2026-04-30 20:08 | -33.93647 | 151.17810 | 35 ft | 6 kts | 13° |
| 2026-04-30 20:08 | -33.93628 | 151.17816 | 34 ft | 1 kts | 13° |
| 2026-04-30 20:08 | -33.93622 | 151.17818 | 35 ft | 0 kts | 25° |
| 2026-04-30 20:09 | -33.93621 | 151.17820 | 35 ft | 0 kts | 30° |
| 2026-04-30 20:09 | -33.93618 | 151.17823 | 33 ft | 1 kts | 43° |
| 2026-04-30 20:09 | -33.93617 | 151.17840 | 35 ft | 2 kts | 100° |
| 2026-04-30 20:10 | -33.93624 | 151.17882 | 34 ft | 0 kts | 100° |